Monroe, Georgia
Current Conditions -  °F | °C
As of 11:55 PM on Sunday 21 Dec 2014 (Local Time) from KCVC Reporting Station
Overcast Overcast  
Wind Chill: 50°   Ceiling: 1300
Heat Index: 50°   Visibility: 10mi
Dew Point: 45°   Wind: 6mph
Humidity: 82%   Direction: 90°E
Pressure: 30.1"   Gusts: NA
Location:  33.8°N, 83.71°W
Report Text: KCVC 220455Z AUTO 09005KT 10SM OVC013 10/07 A3010 RMK AO2
Loading
Personal Weather Stations






























Interactive Weather Map New forecast layout! Learn more

10-Day Weather Forecast

Advertisements
Track Severe Weather on mobile